sensor_id;sensor_type;location;lat;lon;timestamp;P1;durP1;ratioP1;P2;durP2;ratioP2
19889;SDS011;10107;51.198;6.824;2022-09-28T00:00:25;2.78;;;1.70;;
19889;SDS011;10107;51.198;6.824;2022-09-28T00:04:27;1.60;;;1.33;;
19889;SDS011;10107;51.198;6.824;2022-09-28T00:08:32;2.30;;;1.67;;
19889;SDS011;10107;51.198;6.824;2022-09-28T00:12:35;2.55;;;1.70;;
19889;SDS011;10107;51.198;6.824;2022-09-28T00:16:38;2.00;;;1.40;;
19889;SDS011;10107;51.198;6.824;2022-09-28T00:20:42;1.90;;;1.30;;
19889;SDS011;10107;51.198;6.824;2022-09-28T00:24:44;1.55;;;1.23;;
19889;SDS011;10107;51.198;6.824;2022-09-28T00:28:45;2.00;;;1.23;;
19889;SDS011;10107;51.198;6.824;2022-09-28T00:32:48;1.40;;;1.20;;
19889;SDS011;10107;51.198;6.824;2022-09-28T00:36:50;2.67;;;1.73;;
19889;SDS011;10107;51.198;6.824;2022-09-28T00:40:52;2.38;;;1.65;;
19889;SDS011;10107;51.198;6.824;2022-09-28T00:44:55;1.80;;;1.33;;
19889;SDS011;10107;51.198;6.824;2022-09-28T00:49:00;3.38;;;2.10;;
19889;SDS011;10107;51.198;6.824;2022-09-28T00:53:04;2.65;;;1.90;;
19889;SDS011;10107;51.198;6.824;2022-09-28T00:57:09;1.95;;;1.60;;
19889;SDS011;10107;51.198;6.824;2022-09-28T01:01:11;3.78;;;2.50;;
19889;SDS011;10107;51.198;6.824;2022-09-28T01:05:15;3.97;;;2.38;;
19889;SDS011;10107;51.198;6.824;2022-09-28T01:09:18;3.40;;;2.70;;
19889;SDS011;10107;51.198;6.824;2022-09-28T01:13:22;4.50;;;3.03;;
19889;SDS011;10107;51.198;6.824;2022-09-28T01:17:25;3.83;;;2.80;;
19889;SDS011;10107;51.198;6.824;2022-09-28T01:21:40;4.13;;;3.22;;
19889;SDS011;10107;51.198;6.824;2022-09-28T01:25:52;4.60;;;3.17;;
19889;SDS011;10107;51.198;6.824;2022-09-28T01:29:58;3.72;;;3.00;;
19889;SDS011;10107;51.198;6.824;2022-09-28T01:34:08;3.90;;;3.08;;
19889;SDS011;10107;51.198;6.824;2022-09-28T01:38:16;4.25;;;3.33;;
19889;SDS011;10107;51.198;6.824;2022-09-28T01:42:22;5.50;;;3.47;;
19889;SDS011;10107;51.198;6.824;2022-09-28T01:46:29;5.50;;;4.20;;
19889;SDS011;10107;51.198;6.824;2022-09-28T01:50:36;5.55;;;4.47;;
19889;SDS011;10107;51.198;6.824;2022-09-28T01:54:43;4.38;;;3.47;;
19889;SDS011;10107;51.198;6.824;2022-09-28T01:58:48;3.85;;;3.38;;
19889;SDS011;10107;51.198;6.824;2022-09-28T02:02:58;4.22;;;3.30;;
19889;SDS011;10107;51.198;6.824;2022-09-28T02:07:16;4.28;;;3.45;;
19889;SDS011;10107;51.198;6.824;2022-09-28T02:11:23;5.57;;;4.32;;
19889;SDS011;10107;51.198;6.824;2022-09-28T02:15:26;5.68;;;3.95;;
19889;SDS011;10107;51.198;6.824;2022-09-28T02:19:35;5.30;;;3.65;;
19889;SDS011;10107;51.198;6.824;2022-09-28T02:23:38;3.78;;;3.38;;
19889;SDS011;10107;51.198;6.824;2022-09-28T02:27:47;6.10;;;4.00;;
19889;SDS011;10107;51.198;6.824;2022-09-28T02:31:55;6.40;;;3.78;;
19889;SDS011;10107;51.198;6.824;2022-09-28T02:35:58;5.68;;;4.22;;
19889;SDS011;10107;51.198;6.824;2022-09-28T02:40:07;6.13;;;4.57;;
19889;SDS011;10107;51.198;6.824;2022-09-28T02:44:15;7.85;;;5.65;;
19889;SDS011;10107;51.198;6.824;2022-09-28T02:48:45;6.03;;;4.18;;
19889;SDS011;10107;51.198;6.824;2022-09-28T02:53:05;5.63;;;4.00;;
19889;SDS011;10107;51.198;6.824;2022-09-28T02:57:19;7.15;;;4.93;;
19889;SDS011;10107;51.198;6.824;2022-09-28T03:01:33;7.30;;;4.60;;
19889;SDS011;10107;51.198;6.824;2022-09-28T03:05:43;8.00;;;5.32;;
19889;SDS011;10107;51.198;6.824;2022-09-28T03:09:54;6.30;;;4.97;;
19889;SDS011;10107;51.198;6.824;2022-09-28T03:14:03;8.25;;;5.93;;
19889;SDS011;10107;51.198;6.824;2022-09-28T03:18:16;8.15;;;6.00;;
19889;SDS011;10107;51.198;6.824;2022-09-28T03:22:17;8.20;;;5.85;;
19889;SDS011;10107;51.198;6.824;2022-09-28T03:26:21;9.60;;;6.80;;
19889;SDS011;10107;51.198;6.824;2022-09-28T03:30:22;12.60;;;7.20;;
19889;SDS011;10107;51.198;6.824;2022-09-28T03:34:24;7.82;;;5.90;;
19889;SDS011;10107;51.198;6.824;2022-09-28T03:38:26;10.27;;;7.15;;
19889;SDS011;10107;51.198;6.824;2022-09-28T03:42:29;10.63;;;7.68;;
19889;SDS011;10107;51.198;6.824;2022-09-28T03:46:31;11.27;;;7.80;;
19889;SDS011;10107;51.198;6.824;2022-09-28T03:50:38;12.93;;;8.25;;
19889;SDS011;10107;51.198;6.824;2022-09-28T03:54:43;14.82;;;8.80;;
19889;SDS011;10107;51.198;6.824;2022-09-28T03:58:46;10.00;;;7.63;;
19889;SDS011;10107;51.198;6.824;2022-09-28T04:02:50;13.65;;;8.65;;
19889;SDS011;10107;51.198;6.824;2022-09-28T04:06:51;15.93;;;10.90;;
19889;SDS011;10107;51.198;6.824;2022-09-28T04:10:54;12.57;;;8.93;;
19889;SDS011;10107;51.198;6.824;2022-09-28T04:14:58;12.90;;;9.35;;
19889;SDS011;10107;51.198;6.824;2022-09-28T04:18:59;16.08;;;11.20;;
19889;SDS011;10107;51.198;6.824;2022-09-28T04:23:12;12.68;;;9.13;;
19889;SDS011;10107;51.198;6.824;2022-09-28T04:27:14;15.40;;;9.23;;
19889;SDS011;10107;51.198;6.824;2022-09-28T04:31:39;17.80;;;11.50;;
19889;SDS011;10107;51.198;6.824;2022-09-28T04:35:44;16.10;;;10.65;;
19889;SDS011;10107;51.198;6.824;2022-09-28T04:39:46;16.42;;;11.13;;
19889;SDS011;10107;51.198;6.824;2022-09-28T04:43:50;17.75;;;12.05;;
19889;SDS011;10107;51.198;6.824;2022-09-28T04:47:53;19.50;;;14.10;;
19889;SDS011;10107;51.198;6.824;2022-09-28T04:52:24;15.48;;;10.02;;
19889;SDS011;10107;51.198;6.824;2022-09-28T04:56:26;17.42;;;11.98;;
19889;SDS011;10107;51.198;6.824;2022-09-28T05:00:28;15.75;;;10.30;;
19889;SDS011;10107;51.198;6.824;2022-09-28T05:04:42;18.13;;;11.20;;
19889;SDS011;10107;51.198;6.824;2022-09-28T05:09:02;17.35;;;11.80;;
19889;SDS011;10107;51.198;6.824;2022-09-28T05:13:04;18.50;;;12.60;;
19889;SDS011;10107;51.198;6.824;2022-09-28T05:17:06;16.75;;;11.88;;
19889;SDS011;10107;51.198;6.824;2022-09-28T05:21:30;15.23;;;10.65;;
19889;SDS011;10107;51.198;6.824;2022-09-28T05:25:32;13.38;;;8.13;;
19889;SDS011;10107;51.198;6.824;2022-09-28T05:29:49;14.55;;;10.27;;
19889;SDS011;10107;51.198;6.824;2022-09-28T05:34:09;17.10;;;11.23;;
19889;SDS011;10107;51.198;6.824;2022-09-28T05:38:13;12.20;;;9.02;;
19889;SDS011;10107;51.198;6.824;2022-09-28T05:42:14;15.03;;;9.73;;
19889;SDS011;10107;51.198;6.824;2022-09-28T05:46:16;11.45;;;8.48;;
19889;SDS011;10107;51.198;6.824;2022-09-28T05:50:19;14.20;;;10.25;;
19889;SDS011;10107;51.198;6.824;2022-09-28T05:54:23;13.02;;;8.68;;
19889;SDS011;10107;51.198;6.824;2022-09-28T05:58:25;13.20;;;8.40;;
19889;SDS011;10107;51.198;6.824;2022-09-28T06:02:28;11.55;;;7.68;;
19889;SDS011;10107;51.198;6.824;2022-09-28T06:06:30;14.35;;;9.43;;
19889;SDS011;10107;51.198;6.824;2022-09-28T06:10:33;15.48;;;10.07;;
19889;SDS011;10107;51.198;6.824;2022-09-28T06:14:35;16.10;;;8.75;;
19889;SDS011;10107;51.198;6.824;2022-09-28T06:18:38;8.40;;;6.43;;
19889;SDS011;10107;51.198;6.824;2022-09-28T06:22:59;7.18;;;5.40;;
19889;SDS011;10107;51.198;6.824;2022-09-28T06:27:02;15.00;;;9.40;;
19889;SDS011;10107;51.198;6.824;2022-09-28T06:31:04;10.35;;;6.82;;
19889;SDS011;10107;51.198;6.824;2022-09-28T06:35:13;9.32;;;7.10;;
19889;SDS011;10107;51.198;6.824;2022-09-28T06:39:16;9.27;;;6.60;;
19889;SDS011;10107;51.198;6.824;2022-09-28T06:43:19;7.20;;;5.47;;
19889;SDS011;10107;51.198;6.824;2022-09-28T06:47:53;7.20;;;5.13;;
19889;SDS011;10107;51.198;6.824;2022-09-28T06:52:04;8.65;;;6.05;;
19889;SDS011;10107;51.198;6.824;2022-09-28T06:56:41;8.18;;;6.20;;
19889;SDS011;10107;51.198;6.824;2022-09-28T07:00:46;11.10;;;6.80;;
19889;SDS011;10107;51.198;6.824;2022-09-28T07:04:50;8.82;;;6.30;;
19889;SDS011;10107;51.198;6.824;2022-09-28T07:09:27;7.55;;;4.97;;
19889;SDS011;10107;51.198;6.824;2022-09-28T07:13:52;8.32;;;5.68;;
19889;SDS011;10107;51.198;6.824;2022-09-28T07:17:58;5.25;;;4.47;;
19889;SDS011;10107;51.198;6.824;2022-09-28T07:22:01;5.45;;;4.43;;
19889;SDS011;10107;51.198;6.824;2022-09-28T07:26:04;6.10;;;4.63;;
19889;SDS011;10107;51.198;6.824;2022-09-28T07:30:27;6.55;;;4.80;;
19889;SDS011;10107;51.198;6.824;2022-09-28T07:34:37;7.28;;;4.88;;
19889;SDS011;10107;51.198;6.824;2022-09-28T07:38:47;7.35;;;5.07;;
19889;SDS011;10107;51.198;6.824;2022-09-28T07:42:50;5.47;;;4.22;;
19889;SDS011;10107;51.198;6.824;2022-09-28T07:46:52;5.70;;;4.53;;
19889;SDS011;10107;51.198;6.824;2022-09-28T07:51:10;5.82;;;4.20;;
19889;SDS011;10107;51.198;6.824;2022-09-28T07:55:34;4.38;;;3.20;;
19889;SDS011;10107;51.198;6.824;2022-09-28T07:59:49;9.07;;;4.82;;
19889;SDS011;10107;51.198;6.824;2022-09-28T08:04:11;5.53;;;3.90;;
19889;SDS011;10107;51.198;6.824;2022-09-28T08:08:16;6.88;;;4.07;;
19889;SDS011;10107;51.198;6.824;2022-09-28T08:12:20;5.45;;;4.20;;
19889;SDS011;10107;51.198;6.824;2022-09-28T08:16:45;5.30;;;3.92;;
19889;SDS011;10107;51.198;6.824;2022-09-28T08:20:55;6.22;;;3.70;;
19889;SDS011;10107;51.198;6.824;2022-09-28T08:25:16;5.13;;;3.67;;
19889;SDS011;10107;51.198;6.824;2022-09-28T08:29:18;3.25;;;2.95;;
19889;SDS011;10107;51.198;6.824;2022-09-28T08:33:22;8.23;;;3.40;;
19889;SDS011;10107;51.198;6.824;2022-09-28T08:37:45;5.72;;;3.90;;
19889;SDS011;10107;51.198;6.824;2022-09-28T08:42:32;4.65;;;3.90;;
19889;SDS011;10107;51.198;6.824;2022-09-28T08:47:04;5.35;;;4.00;;
19889;SDS011;10107;51.198;6.824;2022-09-28T08:55:59;6.18;;;4.50;;
19889;SDS011;10107;51.198;6.824;2022-09-28T09:00:13;5.47;;;4.32;;
19889;SDS011;10107;51.198;6.824;2022-09-28T09:04:19;5.30;;;3.40;;
19889;SDS011;10107;51.198;6.824;2022-09-28T09:08:46;4.27;;;3.57;;
19889;SDS011;10107;51.198;6.824;2022-09-28T09:12:59;5.93;;;4.57;;
19889;SDS011;10107;51.198;6.824;2022-09-28T09:17:12;4.55;;;3.58;;
19889;SDS011;10107;51.198;6.824;2022-09-28T09:21:57;6.18;;;3.40;;
19889;SDS011;10107;51.198;6.824;2022-09-28T09:26:02;3.70;;;3.15;;
19889;SDS011;10107;51.198;6.824;2022-09-28T09:30:13;4.72;;;3.22;;
19889;SDS011;10107;51.198;6.824;2022-09-28T09:34:35;4.93;;;3.50;;
19889;SDS011;10107;51.198;6.824;2022-09-28T09:39:11;2.90;;;2.42;;
19889;SDS011;10107;51.198;6.824;2022-09-28T09:43:47;3.92;;;2.63;;
19889;SDS011;10107;51.198;6.824;2022-09-28T09:48:22;5.22;;;2.10;;
19889;SDS011;10107;51.198;6.824;2022-09-28T09:52:31;2.08;;;1.50;;
19889;SDS011;10107;51.198;6.824;2022-09-28T09:56:40;2.75;;;1.85;;
19889;SDS011;10107;51.198;6.824;2022-09-28T10:01:12;3.22;;;1.75;;
19889;SDS011;10107;51.198;6.824;2022-09-28T10:05:42;3.10;;;1.55;;
19889;SDS011;10107;51.198;6.824;2022-09-28T10:09:49;3.40;;;1.55;;
19889;SDS011;10107;51.198;6.824;2022-09-28T10:14:07;3.05;;;1.25;;
19889;SDS011;10107;51.198;6.824;2022-09-28T10:18:19;1.10;;;1.00;;
19889;SDS011;10107;51.198;6.824;2022-09-28T10:22:39;1.85;;;1.10;;
19889;SDS011;10107;51.198;6.824;2022-09-28T10:26:49;2.25;;;1.25;;
19889;SDS011;10107;51.198;6.824;2022-09-28T10:30:55;1.30;;;1.00;;
19889;SDS011;10107;51.198;6.824;2022-09-28T10:35:10;3.38;;;1.30;;
19889;SDS011;10107;51.198;6.824;2022-09-28T10:39:39;1.58;;;1.33;;
19889;SDS011;10107;51.198;6.824;2022-09-28T10:43:51;2.22;;;1.40;;
19889;SDS011;10107;51.198;6.824;2022-09-28T10:48:12;2.40;;;1.40;;
19889;SDS011;10107;51.198;6.824;2022-09-28T10:52:31;2.35;;;1.30;;
19889;SDS011;10107;51.198;6.824;2022-09-28T10:56:35;2.08;;;1.23;;
19889;SDS011;10107;51.198;6.824;2022-09-28T11:00:43;1.55;;;1.30;;
19889;SDS011;10107;51.198;6.824;2022-09-28T11:04:50;2.65;;;1.40;;
19889;SDS011;10107;51.198;6.824;2022-09-28T11:08:54;1.70;;;1.60;;
19889;SDS011;10107;51.198;6.824;2022-09-28T11:12:59;1.92;;;1.60;;
19889;SDS011;10107;51.198;6.824;2022-09-28T11:17:17;3.10;;;1.58;;
19889;SDS011;10107;51.198;6.824;2022-09-28T11:21:26;1.52;;;1.25;;
19889;SDS011;10107;51.198;6.824;2022-09-28T11:25:38;2.13;;;1.60;;
19889;SDS011;10107;51.198;6.824;2022-09-28T11:29:42;3.17;;;1.95;;
19889;SDS011;10107;51.198;6.824;2022-09-28T11:34:06;3.53;;;1.80;;
19889;SDS011;10107;51.198;6.824;2022-09-28T11:38:36;2.47;;;1.52;;
19889;SDS011;10107;51.198;6.824;2022-09-28T11:43:18;2.72;;;2.42;;
19889;SDS011;10107;51.198;6.824;2022-09-28T11:47:40;2.10;;;1.73;;
19889;SDS011;10107;51.198;6.824;2022-09-28T11:51:52;1.33;;;1.13;;
19889;SDS011;10107;51.198;6.824;2022-09-28T11:56:02;1.63;;;1.52;;
19889;SDS011;10107;51.198;6.824;2022-09-28T12:00:11;1.98;;;1.58;;
19889;SDS011;10107;51.198;6.824;2022-09-28T12:04:22;2.00;;;1.90;;
19889;SDS011;10107;51.198;6.824;2022-09-28T12:08:32;3.38;;;1.75;;
19889;SDS011;10107;51.198;6.824;2022-09-28T12:12:38;2.75;;;2.28;;
19889;SDS011;10107;51.198;6.824;2022-09-28T12:16:48;1.95;;;1.73;;
19889;SDS011;10107;51.198;6.824;2022-09-28T12:20:58;3.33;;;1.40;;
19889;SDS011;10107;51.198;6.824;2022-09-28T12:25:11;1.63;;;1.20;;
19889;SDS011;10107;51.198;6.824;2022-09-28T12:29:17;1.63;;;1.20;;
19889;SDS011;10107;51.198;6.824;2022-09-28T12:33:23;1.60;;;1.27;;
19889;SDS011;10107;51.198;6.824;2022-09-28T12:37:34;1.98;;;1.10;;
19889;SDS011;10107;51.198;6.824;2022-09-28T12:41:53;2.63;;;1.42;;
19889;SDS011;10107;51.198;6.824;2022-09-28T12:46:15;1.73;;;0.82;;
19889;SDS011;10107;51.198;6.824;2022-09-28T12:50:31;2.40;;;1.30;;
19889;SDS011;10107;51.198;6.824;2022-09-28T12:54:43;1.40;;;1.30;;
19889;SDS011;10107;51.198;6.824;2022-09-28T12:59:03;1.55;;;1.45;;
19889;SDS011;10107;51.198;6.824;2022-09-28T13:03:20;1.88;;;1.27;;
19889;SDS011;10107;51.198;6.824;2022-09-28T13:07:35;2.72;;;1.23;;
19889;SDS011;10107;51.198;6.824;2022-09-28T13:16:20;2.22;;;1.00;;
19889;SDS011;10107;51.198;6.824;2022-09-28T13:20:34;1.77;;;1.20;;
19889;SDS011;10107;51.198;6.824;2022-09-28T13:24:40;1.35;;;1.20;;
19889;SDS011;10107;51.198;6.824;2022-09-28T13:28:43;3.60;;;1.30;;
19889;SDS011;10107;51.198;6.824;2022-09-28T13:32:48;2.00;;;1.40;;
19889;SDS011;10107;51.198;6.824;2022-09-28T13:41:25;4.43;;;2.70;;
19889;SDS011;10107;51.198;6.824;2022-09-28T13:45:45;1.65;;;1.30;;
19889;SDS011;10107;51.198;6.824;2022-09-28T13:50:02;3.78;;;2.45;;
19889;SDS011;10107;51.198;6.824;2022-09-28T13:54:27;4.50;;;2.80;;
19889;SDS011;10107;51.198;6.824;2022-09-28T13:58:49;2.25;;;1.30;;
19889;SDS011;10107;51.198;6.824;2022-09-28T14:02:56;4.82;;;1.90;;
19889;SDS011;10107;51.198;6.824;2022-09-28T14:07:09;2.60;;;1.42;;
19889;SDS011;10107;51.198;6.824;2022-09-28T14:11:22;2.47;;;1.80;;
19889;SDS011;10107;51.198;6.824;2022-09-28T14:15:49;3.00;;;1.70;;
19889;SDS011;10107;51.198;6.824;2022-09-28T14:19:52;1.73;;;1.15;;
19889;SDS011;10107;51.198;6.824;2022-09-28T14:24:04;2.45;;;1.27;;
19889;SDS011;10107;51.198;6.824;2022-09-28T14:28:25;2.85;;;0.95;;
19889;SDS011;10107;51.198;6.824;2022-09-28T14:32:34;2.15;;;0.85;;
19889;SDS011;10107;51.198;6.824;2022-09-28T14:36:39;2.17;;;0.90;;
19889;SDS011;10107;51.198;6.824;2022-09-28T14:41:07;1.58;;;1.10;;
19889;SDS011;10107;51.198;6.824;2022-09-28T14:45:33;2.38;;;1.08;;
19889;SDS011;10107;51.198;6.824;2022-09-28T14:49:42;1.20;;;1.02;;
19889;SDS011;10107;51.198;6.824;2022-09-28T14:53:48;2.70;;;0.80;;
19889;SDS011;10107;51.198;6.824;2022-09-28T14:57:53;1.90;;;1.05;;
19889;SDS011;10107;51.198;6.824;2022-09-28T15:01:57;0.93;;;0.60;;
19889;SDS011;10107;51.198;6.824;2022-09-28T15:06:05;1.35;;;0.63;;
19889;SDS011;10107;51.198;6.824;2022-09-28T15:10:13;1.08;;;0.50;;
19889;SDS011;10107;51.198;6.824;2022-09-28T15:14:23;0.82;;;0.50;;
19889;SDS011;10107;51.198;6.824;2022-09-28T15:23:21;0.80;;;0.50;;
19889;SDS011;10107;51.198;6.824;2022-09-28T15:27:24;1.30;;;0.57;;
19889;SDS011;10107;51.198;6.824;2022-09-28T15:31:35;1.48;;;1.00;;
19889;SDS011;10107;51.198;6.824;2022-09-28T15:35:37;1.13;;;0.70;;
19889;SDS011;10107;51.198;6.824;2022-09-28T15:39:38;1.27;;;0.70;;
19889;SDS011;10107;51.198;6.824;2022-09-28T15:43:40;1.80;;;1.08;;
19889;SDS011;10107;51.198;6.824;2022-09-28T15:47:48;1.98;;;1.17;;
19889;SDS011;10107;51.198;6.824;2022-09-28T15:51:57;1.38;;;1.10;;
19889;SDS011;10107;51.198;6.824;2022-09-28T15:56:03;1.48;;;1.17;;
19889;SDS011;10107;51.198;6.824;2022-09-28T16:00:21;1.13;;;0.88;;
19889;SDS011;10107;51.198;6.824;2022-09-28T16:04:37;0.60;;;0.60;;
19889;SDS011;10107;51.198;6.824;2022-09-28T16:08:41;1.85;;;0.65;;
19889;SDS011;10107;51.198;6.824;2022-09-28T16:12:45;0.85;;;0.85;;
19889;SDS011;10107;51.198;6.824;2022-09-28T16:16:51;1.75;;;0.90;;
19889;SDS011;10107;51.198;6.824;2022-09-28T16:20:56;1.30;;;1.20;;
19889;SDS011;10107;51.198;6.824;2022-09-28T16:25:22;1.63;;;1.20;;
19889;SDS011;10107;51.198;6.824;2022-09-28T16:29:27;1.40;;;1.30;;
19889;SDS011;10107;51.198;6.824;2022-09-28T16:33:37;1.50;;;1.10;;
19889;SDS011;10107;51.198;6.824;2022-09-28T16:37:42;3.15;;;1.70;;
19889;SDS011;10107;51.198;6.824;2022-09-28T16:41:44;1.80;;;1.50;;
19889;SDS011;10107;51.198;6.824;2022-09-28T16:45:49;2.05;;;1.65;;
19889;SDS011;10107;51.198;6.824;2022-09-28T16:49:50;2.85;;;2.05;;
19889;SDS011;10107;51.198;6.824;2022-09-28T16:53:53;2.42;;;2.03;;
19889;SDS011;10107;51.198;6.824;2022-09-28T16:58:18;6.13;;;4.05;;
19889;SDS011;10107;51.198;6.824;2022-09-28T17:02:20;4.63;;;2.95;;
19889;SDS011;10107;51.198;6.824;2022-09-28T17:06:24;3.03;;;2.72;;
19889;SDS011;10107;51.198;6.824;2022-09-28T17:10:31;2.65;;;2.35;;
19889;SDS011;10107;51.198;6.824;2022-09-28T17:14:35;2.78;;;2.47;;
19889;SDS011;10107;51.198;6.824;2022-09-28T17:18:37;3.00;;;2.30;;
19889;SDS011;10107;51.198;6.824;2022-09-28T17:22:39;2.10;;;2.00;;
19889;SDS011;10107;51.198;6.824;2022-09-28T17:26:42;2.20;;;2.00;;
19889;SDS011;10107;51.198;6.824;2022-09-28T17:30:45;2.28;;;2.08;;
19889;SDS011;10107;51.198;6.824;2022-09-28T17:34:47;2.40;;;2.20;;
19889;SDS011;10107;51.198;6.824;2022-09-28T17:38:49;2.60;;;2.38;;
19889;SDS011;10107;51.198;6.824;2022-09-28T17:42:54;2.50;;;2.30;;
19889;SDS011;10107;51.198;6.824;2022-09-28T17:46:57;3.00;;;2.47;;
19889;SDS011;10107;51.198;6.824;2022-09-28T17:51:00;3.72;;;3.10;;
19889;SDS011;10107;51.198;6.824;2022-09-28T17:55:03;3.70;;;3.40;;
19889;SDS011;10107;51.198;6.824;2022-09-28T17:59:09;5.68;;;4.75;;
19889;SDS011;10107;51.198;6.824;2022-09-28T18:03:14;28.08;;;16.30;;
19889;SDS011;10107;51.198;6.824;2022-09-28T18:07:18;7.97;;;5.32;;
19889;SDS011;10107;51.198;6.824;2022-09-28T18:11:20;6.60;;;5.30;;
19889;SDS011;10107;51.198;6.824;2022-09-28T18:15:23;5.78;;;5.15;;
19889;SDS011;10107;51.198;6.824;2022-09-28T18:19:25;6.43;;;5.00;;
19889;SDS011;10107;51.198;6.824;2022-09-28T18:23:27;6.05;;;5.03;;
19889;SDS011;10107;51.198;6.824;2022-09-28T18:27:29;5.55;;;4.45;;
19889;SDS011;10107;51.198;6.824;2022-09-28T18:31:34;4.78;;;4.28;;
19889;SDS011;10107;51.198;6.824;2022-09-28T18:39:39;6.70;;;5.72;;
19889;SDS011;10107;51.198;6.824;2022-09-28T18:43:40;5.72;;;4.82;;
19889;SDS011;10107;51.198;6.824;2022-09-28T18:47:45;6.72;;;5.15;;
19889;SDS011;10107;51.198;6.824;2022-09-28T18:51:47;6.20;;;5.10;;
19889;SDS011;10107;51.198;6.824;2022-09-28T18:55:49;6.75;;;4.95;;
19889;SDS011;10107;51.198;6.824;2022-09-28T18:59:50;6.50;;;5.10;;
19889;SDS011;10107;51.198;6.824;2022-09-28T19:03:54;7.05;;;5.45;;
19889;SDS011;10107;51.198;6.824;2022-09-28T19:07:57;7.85;;;5.70;;
19889;SDS011;10107;51.198;6.824;2022-09-28T19:12:00;6.90;;;5.80;;
19889;SDS011;10107;51.198;6.824;2022-09-28T19:16:05;8.18;;;6.05;;
19889;SDS011;10107;51.198;6.824;2022-09-28T19:20:09;6.60;;;5.60;;
19889;SDS011;10107;51.198;6.824;2022-09-28T19:28:15;7.22;;;5.00;;
19889;SDS011;10107;51.198;6.824;2022-09-28T19:32:17;5.72;;;4.35;;
19889;SDS011;10107;51.198;6.824;2022-09-28T19:36:22;6.07;;;4.43;;
19889;SDS011;10107;51.198;6.824;2022-09-28T19:40:25;5.13;;;4.03;;
19889;SDS011;10107;51.198;6.824;2022-09-28T19:44:27;4.60;;;4.07;;
19889;SDS011;10107;51.198;6.824;2022-09-28T19:48:30;4.90;;;4.40;;
19889;SDS011;10107;51.198;6.824;2022-09-28T19:52:34;3.60;;;3.10;;
19889;SDS011;10107;51.198;6.824;2022-09-28T19:56:36;6.10;;;4.60;;
19889;SDS011;10107;51.198;6.824;2022-09-28T20:00:38;6.65;;;5.20;;
19889;SDS011;10107;51.198;6.824;2022-09-28T20:04:40;6.38;;;5.63;;
19889;SDS011;10107;51.198;6.824;2022-09-28T20:08:43;7.95;;;6.28;;
19889;SDS011;10107;51.198;6.824;2022-09-28T20:12:45;6.00;;;5.03;;
19889;SDS011;10107;51.198;6.824;2022-09-28T20:16:46;8.75;;;6.30;;
19889;SDS011;10107;51.198;6.824;2022-09-28T20:20:59;8.00;;;6.53;;
19889;SDS011;10107;51.198;6.824;2022-09-28T20:25:03;10.40;;;7.63;;
19889;SDS011;10107;51.198;6.824;2022-09-28T20:29:05;8.05;;;6.72;;
19889;SDS011;10107;51.198;6.824;2022-09-28T20:33:08;7.55;;;6.22;;
19889;SDS011;10107;51.198;6.824;2022-09-28T20:37:09;8.13;;;6.07;;
19889;SDS011;10107;51.198;6.824;2022-09-28T20:41:14;7.03;;;5.57;;
19889;SDS011;10107;51.198;6.824;2022-09-28T20:45:18;7.43;;;6.00;;
19889;SDS011;10107;51.198;6.824;2022-09-28T20:49:20;8.50;;;7.07;;
19889;SDS011;10107;51.198;6.824;2022-09-28T20:53:22;8.60;;;6.88;;
19889;SDS011;10107;51.198;6.824;2022-09-28T20:57:25;9.35;;;7.20;;
19889;SDS011;10107;51.198;6.824;2022-09-28T21:01:28;11.15;;;8.10;;
19889;SDS011;10107;51.198;6.824;2022-09-28T21:05:30;8.90;;;6.90;;
19889;SDS011;10107;51.198;6.824;2022-09-28T21:09:36;8.32;;;6.00;;
19889;SDS011;10107;51.198;6.824;2022-09-28T21:13:39;9.25;;;6.03;;
19889;SDS011;10107;51.198;6.824;2022-09-28T21:21:43;6.88;;;5.53;;
19889;SDS011;10107;51.198;6.824;2022-09-28T21:25:45;8.70;;;6.80;;
19889;SDS011;10107;51.198;6.824;2022-09-28T21:29:48;9.10;;;7.20;;
19889;SDS011;10107;51.198;6.824;2022-09-28T21:33:50;9.13;;;7.53;;
19889;SDS011;10107;51.198;6.824;2022-09-28T21:37:51;9.32;;;7.25;;
19889;SDS011;10107;51.198;6.824;2022-09-28T21:41:54;9.85;;;7.07;;
19889;SDS011;10107;51.198;6.824;2022-09-28T21:45:57;9.82;;;7.20;;
19889;SDS011;10107;51.198;6.824;2022-09-28T21:49:59;10.68;;;8.32;;
19889;SDS011;10107;51.198;6.824;2022-09-28T21:54:01;10.25;;;7.90;;
19889;SDS011;10107;51.198;6.824;2022-09-28T21:58:02;10.93;;;8.20;;
19889;SDS011;10107;51.198;6.824;2022-09-28T22:02:05;11.05;;;8.23;;
19889;SDS011;10107;51.198;6.824;2022-09-28T22:06:11;10.88;;;8.35;;
19889;SDS011;10107;51.198;6.824;2022-09-28T22:10:14;11.30;;;8.52;;
19889;SDS011;10107;51.198;6.824;2022-09-28T22:14:17;12.10;;;8.70;;
19889;SDS011;10107;51.198;6.824;2022-09-28T22:18:20;13.52;;;10.70;;
19889;SDS011;10107;51.198;6.824;2022-09-28T22:22:22;14.75;;;11.45;;
19889;SDS011;10107;51.198;6.824;2022-09-28T22:26:24;16.35;;;11.57;;
19889;SDS011;10107;51.198;6.824;2022-09-28T22:30:26;16.17;;;11.27;;
19889;SDS011;10107;51.198;6.824;2022-09-28T22:34:29;13.77;;;9.68;;
19889;SDS011;10107;51.198;6.824;2022-09-28T22:38:32;13.23;;;9.13;;
19889;SDS011;10107;51.198;6.824;2022-09-28T22:42:34;13.93;;;9.73;;
19889;SDS011;10107;51.198;6.824;2022-09-28T22:46:37;11.95;;;9.32;;
19889;SDS011;10107;51.198;6.824;2022-09-28T22:50:47;10.60;;;7.95;;
19889;SDS011;10107;51.198;6.824;2022-09-28T22:54:49;11.63;;;7.55;;
19889;SDS011;10107;51.198;6.824;2022-09-28T22:58:51;11.18;;;8.75;;
19889;SDS011;10107;51.198;6.824;2022-09-28T23:02:53;13.05;;;8.68;;
19889;SDS011;10107;51.198;6.824;2022-09-28T23:06:56;11.32;;;7.53;;
19889;SDS011;10107;51.198;6.824;2022-09-28T23:10:59;6.60;;;5.40;;
19889;SDS011;10107;51.198;6.824;2022-09-28T23:15:02;8.55;;;7.10;;
19889;SDS011;10107;51.198;6.824;2022-09-28T23:19:04;8.45;;;6.40;;
19889;SDS011;10107;51.198;6.824;2022-09-28T23:23:07;9.85;;;7.45;;
19889;SDS011;10107;51.198;6.824;2022-09-28T23:27:09;6.35;;;5.35;;
19889;SDS011;10107;51.198;6.824;2022-09-28T23:31:11;12.20;;;9.02;;
19889;SDS011;10107;51.198;6.824;2022-09-28T23:35:15;10.07;;;8.10;;
19889;SDS011;10107;51.198;6.824;2022-09-28T23:39:18;10.55;;;8.20;;
19889;SDS011;10107;51.198;6.824;2022-09-28T23:43:20;9.48;;;7.90;;
19889;SDS011;10107;51.198;6.824;2022-09-28T23:47:22;9.27;;;7.22;;
19889;SDS011;10107;51.198;6.824;2022-09-28T23:51:23;9.20;;;7.60;;
19889;SDS011;10107;51.198;6.824;2022-09-28T23:55:26;9.32;;;7.07;;
19889;SDS011;10107;51.198;6.824;2022-09-28T23:59:28;7.23;;;5.70;;
